Wetterdaten: Woche 03.12.18 - 09.12.18 (KW49)
Datum Zeit Temp. A. Feuchte A. Luftdruck Regen Wind Richtung Taupunkt Windchill Windben
03.12.2018 00:00 0,9 C 82 % 1011,3 hPa 0,3 l/m 0,1 km/h N -1,9 C 0,9 C 4,4 km/h
03.12.2018 01:00 1,1 C 82 % 1011,2 hPa 0,5 l/m 0,1 km/h N -1,6 C 1,1 C 2,4 km/h
03.12.2018 02:00 1,0 C 82 % 1011,2 hPa 0,3 l/m 0,1 km/h N -1,7 C 1,0 C 2,8 km/h
03.12.2018 03:00 1,1 C 82 % 1011,0 hPa 1,6 l/m 0,0 km/h N -1,6 C 1,1 C 0,4 km/h
03.12.2018 04:00 1,2 C 82 % 1010,8 hPa 1,3 l/m 0,0 km/h N -1,5 C 1,2 C 0,4 km/h
03.12.2018 05:00 1,4 C 82 % 1010,8 hPa 1,6 l/m 0,0 km/h N -1,3 C 1,4 C 2,0 km/h
03.12.2018 06:00 1,9 C 83 % 1010,6 hPa 1,8 l/m 0,0 km/h N -0,8 C 1,9 C 2,0 km/h
03.12.2018 07:00 1,8 C 83 % 1010,8 hPa 0,8 l/m 0,0 km/h N -0,9 C 1,8 C 2,0 km/h
03.12.2018 08:00 1,5 C 82 % 1010,9 hPa 0,5 l/m 0,0 km/h N -1,2 C 1,5 C 0,4 km/h
03.12.2018 09:00 2,0 C 83 % 1010,7 hPa 0,8 l/m 0,0 km/h N -0,6 C 2,0 C 0,8 km/h
03.12.2018 10:00 2,7 C 83 % 1010,8 hPa 1,3 l/m 0,0 km/h N 0,1 C 2,7 C 0,4 km/h
03.12.2018 11:00 3,1 C 83 % 1010,5 hPa 0,8 l/m 0,0 km/h N 0,5 C 3,1 C 2,0 km/h
03.12.2018 12:00 4,0 C 83 % 1010,1 hPa 0,8 l/m 0,0 km/h N 1,4 C 4,0 C 0,8 km/h
03.12.2018 13:00 4,3 C 82 % 1009,7 hPa 0,5 l/m 0,1 km/h N 1,6 C 4,3 C 2,8 km/h
03.12.2018 14:00 4,5 C 83 % 1009,2 hPa 0,0 l/m 0,0 km/h N 1,8 C 4,5 C 1,6 km/h
03.12.2018 15:00 4,2 C 83 % 1009,4 hPa 0,0 l/m 0,0 km/h N 1,6 C 4,2 C 0,8 km/h
03.12.2018 16:00 3,9 C 83 % 1009,9 hPa 0,0 l/m 0,0 km/h N 1,2 C 3,9 C 0,4 km/h
03.12.2018 17:00 3,5 C 83 % 1010,0 hPa 0,0 l/m 0,0 km/h N 0,8 C 3,5 C 0,4 km/h
03.12.2018 18:00 3,1 C 83 % 1009,7 hPa 0,0 l/m 0,0 km/h N 0,5 C 3,1 C 0,8 km/h
03.12.2018 19:00 3,0 C 83 % 1009,5 hPa 1,0 l/m 0,1 km/h N 0,4 C 3,0 C 1,6 km/h
03.12.2018 20:00 3,4 C 83 % 1009,3 hPa 1,8 l/m 0,1 km/h N 0,8 C 3,4 C 2,4 km/h
03.12.2018 21:00 3,7 C 83 % 1008,7 hPa 0,5 l/m 0,3 km/h N 1,1 C 3,7 C 2,4 km/h
03.12.2018 22:00 3,7 C 83 % 1008,2 hPa 0,0 l/m 0,0 km/h N 1,1 C 3,7 C 0,4 km/h
03.12.2018 23:00 3,5 C 83 % 1007,7 hPa 0,0 l/m 0,1 km/h N 0,8 C 3,5 C 0,8 km/h
04.12.2018 00:00 3,4 C 83 % 1007,5 hPa 0,3 l/m 0,0 km/h N 0,8 C 3,4 C 0,8 km/h
04.12.2018 01:00 3,8 C 83 % 1008,3 hPa 0,5 l/m 0,3 km/h N 1,2 C 3,8 C 3,6 km/h
04.12.2018 02:00 5,7 C 83 % 1008,3 hPa 0,8 l/m 1,0 km/h N 3,1 C 5,7 C 6,4 km/h
04.12.2018 03:00 6,9 C 83 % 1008,0 hPa 0,3 l/m 2,4 km/h N 4,1 C 6,9 C 15,3 km/h
04.12.2018 04:00 10,1 C 82 % 1008,3 hPa 0,0 l/m 9,1 km/h N 7,2 C 8,5 C 31,8 km/h
04.12.2018 05:00 11,2 C 77 % 1008,9 hPa 0,0 l/m 10,3 km/h N 7,3 C 8,9 C 30,6 km/h
04.12.2018 06:00 11,2 C 77 % 1009,7 hPa 0,0 l/m 10,0 km/h N 7,2 C 9,0 C 27,8 km/h
04.12.2018 07:00 11,2 C 77 % 1010,4 hPa 0,0 l/m 10,7 km/h N 7,2 C 8,5 C 34,2 km/h
04.12.2018 08:00 11,5 C 75 % 1011,2 hPa 0,0 l/m 11,3 km/h N 7,3 C 8,6 C 29,4 km/h
04.12.2018 09:00 12,2 C 71 % 1011,9 hPa 0,0 l/m 12,2 km/h N 7,1 C 9,0 C 33,0 km/h
04.12.2018 10:00 12,5 C 69 % 1012,5 hPa 0,0 l/m 9,7 km/h N 7,0 C 10,6 C 31,4 km/h
04.12.2018 11:00 12,4 C 69 % 1012,4 hPa 0,0 l/m 10,2 km/h N 6,9 C 10,2 C 31,0 km/h
04.12.2018 12:00 12,6 C 69 % 1012,9 hPa 0,0 l/m 7,8 km/h N 7,1 C 11,6 C 26,6 km/h
04.12.2018 13:00 12,8 C 68 % 1013,6 hPa 0,0 l/m 9,3 km/h N 7,1 C 11,1 C 28,5 km/h
04.12.2018 14:00 11,6 C 74 % 1014,8 hPa 0,5 l/m 10,7 km/h N 7,0 C 9,0 C 30,6 km/h
04.12.2018 15:00 9,2 C 80 % 1016,6 hPa 0,5 l/m 5,0 km/h N 5,9 C 9,1 C 17,3 km/h
04.12.2018 16:00 8,7 C 80 % 1017,8 hPa 0,0 l/m 1,0 km/h N 5,4 C 8,7 C 7,6 km/h
04.12.2018 17:00 8,4 C 80 % 1019,1 hPa 0,0 l/m 1,6 km/h N 5,2 C 8,4 C 11,6 km/h
04.12.2018 18:00 7,8 C 81 % 1020,1 hPa 1,0 l/m 1,5 km/h N 4,7 C 7,8 C 10,1 km/h
04.12.2018 19:00 7,0 C 81 % 1021,2 hPa 0,0 l/m 1,2 km/h N 4,0 C 7,0 C 7,2 km/h
04.12.2018 20:00 6,4 C 80 % 1022,3 hPa 0,0 l/m 3,4 km/h N 3,2 C 6,4 C 11,7 km/h
04.12.2018 21:00 5,9 C 78 % 1023,1 hPa 0,3 l/m 5,7 km/h N 2,3 C 5,9 C 15,7 km/h
04.12.2018 22:00 5,6 C 78 % 1023,7 hPa 0,0 l/m 5,6 km/h N 2,0 C 5,6 C 16,5 km/h
04.12.2018 23:00 5,0 C 77 % 1024,5 hPa 0,0 l/m 6,7 km/h N 1,3 C 4,8 C 18,1 km/h
05.12.2018 00:00 4,7 C 76 % 1025,2 hPa 0,0 l/m 7,3 km/h N 0,8 C 3,9 C 18,9 km/h
05.12.2018 01:00 4,2 C 77 % 1025,9 hPa 0,0 l/m 5,4 km/h N 0,5 C 4,2 C 15,7 km/h
05.12.2018 02:00 3,8 C 77 % 1026,6 hPa 0,0 l/m 5,8 km/h N 0,0 C 3,8 C 16,5 km/h
05.12.2018 03:00 3,4 C 77 % 1027,1 hPa 0,0 l/m 2,0 km/h N -0,2 C 3,4 C 9,3 km/h
05.12.2018 04:00 3,1 C 77 % 1027,6 hPa 0,0 l/m 1,6 km/h N -0,6 C 3,1 C 9,3 km/h
05.12.2018 05:00 2,7 C 76 % 1028,0 hPa 0,0 l/m 0,9 km/h N -1,0 C 2,7 C 7,6 km/h
05.12.2018 06:00 2,0 C 76 % 1028,8 hPa 0,0 l/m 0,0 km/h N -1,8 C 2,0 C 0,4 km/h
05.12.2018 07:00 1,1 C 79 % 1029,3 hPa 0,0 l/m 0,2 km/h N -2,1 C 1,1 C 4,0 km/h
05.12.2018 08:00 2,4 C 78 % 1029,8 hPa 0,0 l/m 0,9 km/h N -1,0 C 2,4 C 6,0 km/h
05.12.2018 09:00 3,9 C 74 % 1030,1 hPa 0,0 l/m 2,8 km/h N -0,3 C 3,9 C 8,9 km/h
05.12.2018 10:00 4,9 C 71 % 1030,3 hPa 0,0 l/m 3,8 km/h N 0,0 C 4,9 C 11,7 km/h
05.12.2018 11:00 5,7 C 67 % 1030,2 hPa 0,0 l/m 3,8 km/h N 0,0 C 5,7 C 9,3 km/h
05.12.2018 12:00 6,1 C 63 % 1029,5 hPa 0,0 l/m 3,8 km/h N -0,4 C 6,1 C 10,5 km/h
05.12.2018 13:00 6,4 C 61 % 1029,4 hPa 0,0 l/m 1,7 km/h N -0,6 C 6,4 C 7,6 km/h
05.12.2018 14:00 6,7 C 59 % 1029,3 hPa 0,0 l/m 0,8 km/h N -0,7 C 6,7 C 5,2 km/h
05.12.2018 15:00 6,3 C 61 % 1029,1 hPa 0,0 l/m 0,0 km/h N -0,8 C 6,3 C 0,0 km/h
05.12.2018 16:00 4,0 C 66 % 1029,3 hPa 0,0 l/m 0,0 km/h N -1,8 C 4,0 C 0,0 km/h
05.12.2018 17:00 1,5 C 73 % 1029,3 hPa 0,0 l/m 0,1 km/h N -2,8 C 1,5 C 1,2 km/h
05.12.2018 18:00 0,0 C 77 % 1029,5 hPa 0,0 l/m 0,0 km/h N -3,6 C 0,0 C 0,4 km/h
05.12.2018 19:00 -1,4 C 79 % 1029,5 hPa 0,0 l/m 0,0 km/h N -4,6 C -1,4 C 0,0 km/h
05.12.2018 20:00 -2,2 C 81 % 1029,0 hPa 0,0 l/m 0,0 km/h N -5,0 C -2,2 C 0,0 km/h
05.12.2018 21:00 -2,7 C 82 % 1028,7 hPa 0,0 l/m 0,0 km/h N -5,4 C -2,7 C 0,0 km/h
05.12.2018 22:00 -3,2 C 82 % 1028,1 hPa 0,0 l/m 0,0 km/h N -5,8 C -3,2 C 0,0 km/h
05.12.2018 23:00 -3,8 C 82 % 1027,5 hPa 0,0 l/m 0,0 km/h N -6,4 C -3,8 C 0,0 km/h
06.12.2018 00:00 -4,2 C 82 % 1026,9 hPa 0,0 l/m 0,0 km/h N -6,8 C -4,2 C 0,0 km/h
06.12.2018 01:00 -4,1 C 82 % 1025,9 hPa 0,0 l/m 0,0 km/h N -6,7 C -4,1 C 0,0 km/h
06.12.2018 02:00 -2,8 C 82 % 1025,1 hPa 0,0 l/m 0,0 km/h N -5,4 C -2,8 C 0,0 km/h
06.12.2018 03:00 -2,4 C 82 % 1024,2 hPa 0,0 l/m 0,0 km/h N -5,0 C -2,4 C 0,0 km/h
06.12.2018 04:00 -1,8 C 82 % 1023,5 hPa 0,0 l/m 0,0 km/h N -4,4 C -1,8 C 0,0 km/h
06.12.2018 05:00 -0,9 C 82 % 1023,2 hPa 0,0 l/m 0,0 km/h N -3,6 C -0,9 C 0,4 km/h
06.12.2018 06:00 -0,6 C 82 % 1022,8 hPa 0,0 l/m 0,0 km/h N -3,2 C -0,6 C 0,0 km/h
06.12.2018 07:00 -0,4 C 82 % 1022,9 hPa 0,0 l/m 0,1 km/h N -3,1 C -0,4 C 0,8 km/h
06.12.2018 08:00 -0,0 C 82 % 1023,5 hPa 0,0 l/m 0,0 km/h N -2,7 C -0,0 C 0,0 km/h
06.12.2018 09:00 0,4 C 82 % 1023,8 hPa 0,0 l/m 0,0 km/h N -2,3 C 0,4 C 2,0 km/h
06.12.2018 10:00 1,1 C 82 % 1023,9 hPa 0,0 l/m 0,0 km/h N -1,6 C 1,1 C 0,8 km/h
06.12.2018 11:00 2,5 C 81 % 1023,6 hPa 0,0 l/m 0,0 km/h N -0,3 C 2,5 C 2,0 km/h
06.12.2018 12:00 3,3 C 82 % 1023,5 hPa 0,0 l/m 0,0 km/h N 0,4 C 3,3 C 1,6 km/h
06.12.2018 13:00 3,1 C 82 % 1023,6 hPa 0,0 l/m 0,0 km/h N 0,3 C 3,1 C 1,2 km/h
06.12.2018 14:00 2,9 C 81 % 1023,5 hPa 0,0 l/m 0,0 km/h N -0,0 C 2,9 C 0,8 km/h
06.12.2018 15:00 2,5 C 82 % 1023,3 hPa 0,0 l/m 0,0 km/h N -0,4 C 2,5 C 1,6 km/h
06.12.2018 16:00 2,3 C 82 % 1023,5 hPa 0,0 l/m 0,0 km/h N -0,5 C 2,3 C 0,0 km/h
06.12.2018 17:00 2,2 C 82 % 1023,7 hPa 0,3 l/m 0,0 km/h N -0,5 C 2,2 C 0,0 km/h
06.12.2018 18:00 2,1 C 82 % 1023,8 hPa 0,0 l/m 0,0 km/h N -0,7 C 2,1 C 0,0 km/h
06.12.2018 19:00 1,9 C 82 % 1023,8 hPa 0,3 l/m 0,0 km/h N -0,8 C 1,9 C 0,0 km/h
06.12.2018 20:00 1,9 C 82 % 1023,8 hPa 0,3 l/m 0,0 km/h N -0,9 C 1,9 C 0,0 km/h
06.12.2018 21:00 1,9 C 82 % 1023,6 hPa 0,0 l/m 0,0 km/h N -0,9 C 1,9 C 0,4 km/h
06.12.2018 22:00 2,0 C 81 % 1023,1 hPa 0,5 l/m 0,0 km/h N -0,9 C 2,0 C 0,4 km/h
06.12.2018 23:00 2,3 C 81 % 1022,7 hPa 0,0 l/m 0,0 km/h N -0,6 C 2,3 C 0,8 km/h
07.12.2018 00:00 2,3 C 81 % 1022,3 hPa 0,0 l/m 0,0 km/h N -0,6 C 2,3 C 0,4 km/h
07.12.2018 01:00 2,3 C 81 % 1021,9 hPa 0,0 l/m 0,0 km/h N -0,6 C 2,3 C 0,4 km/h
07.12.2018 02:00 2,2 C 82 % 1021,6 hPa 0,0 l/m 0,0 km/h N -0,5 C 2,2 C 0,4 km/h
07.12.2018 03:00 2,3 C 82 % 1021,0 hPa 0,0 l/m 0,0 km/h N -0,4 C 2,3 C 1,6 km/h
07.12.2018 04:00 2,4 C 82 % 1020,4 hPa 0,0 l/m 0,0 km/h N -0,4 C 2,4 C 0,4 km/h
07.12.2018 05:00 2,0 C 82 % 1020,1 hPa 0,0 l/m 0,0 km/h N -0,7 C 2,0 C 0,0 km/h
07.12.2018 06:00 2,3 C 82 % 1019,3 hPa 0,0 l/m 0,0 km/h N -0,5 C 2,3 C 0,0 km/h
07.12.2018 07:00 2,7 C 82 % 1018,7 hPa 0,0 l/m 0,0 km/h N -0,1 C 2,7 C 1,2 km/h
07.12.2018 08:00 2,8 C 82 % 1018,6 hPa 0,0 l/m 0,0 km/h N -0,0 C 2,8 C 0,4 km/h
07.12.2018 09:00 3,3 C 82 % 1018,4 hPa 0,0 l/m 0,1 km/h N 0,6 C 3,3 C 0,8 km/h
07.12.2018 10:00 4,2 C 82 % 1017,9 hPa 0,0 l/m 0,0 km/h N 1,4 C 4,2 C 1,2 km/h
07.12.2018 11:00 5,2 C 82 % 1016,7 hPa 0,0 l/m 0,0 km/h N 2,4 C 5,2 C 2,0 km/h
07.12.2018 12:00 6,7 C 82 % 1015,5 hPa 0,0 l/m 0,0 km/h N 3,8 C 6,7 C 1,2 km/h
07.12.2018 13:00 7,6 C 81 % 1014,7 hPa 0,0 l/m 0,1 km/h N 4,6 C 7,6 C 2,4 km/h
07.12.2018 14:00 7,6 C 81 % 1014,0 hPa 0,0 l/m 0,1 km/h N 4,6 C 7,6 C 2,0 km/h
07.12.2018 15:00 7,5 C 81 % 1013,1 hPa 0,0 l/m 0,4 km/h N 4,4 C 7,5 C 3,6 km/h
07.12.2018 16:00 6,7 C 81 % 1012,0 hPa 0,0 l/m 0,1 km/h N 3,6 C 6,7 C 3,2 km/h
07.12.2018 17:00 6,4 C 81 % 1011,1 hPa 0,0 l/m 0,1 km/h N 3,4 C 6,4 C 2,8 km/h
07.12.2018 18:00 5,8 C 81 % 1010,3 hPa 0,0 l/m 0,0 km/h N 2,8 C 5,8 C 0,8 km/h
07.12.2018 19:00 4,7 C 82 % 1009,8 hPa 0,0 l/m 0,0 km/h N 1,8 C 4,7 C 0,4 km/h
07.12.2018 20:00 4,2 C 82 % 1008,9 hPa 0,0 l/m 0,0 km/h N 1,4 C 4,2 C 0,8 km/h
07.12.2018 21:00 4,0 C 82 % 1007,9 hPa 0,0 l/m 0,5 km/h N 1,1 C 4,0 C 3,2 km/h
07.12.2018 22:00 3,9 C 81 % 1007,8 hPa 0,5 l/m 1,0 km/h N 1,0 C 3,9 C 6,4 km/h
07.12.2018 23:00 4,0 C 81 % 1007,4 hPa 0,0 l/m 0,3 km/h N 1,0 C 4,0 C 2,8 km/h
08.12.2018 00:00 4,1 C 81 % 1007,6 hPa 0,5 l/m 0,1 km/h N 1,1 C 4,1 C 1,6 km/h
08.12.2018 01:00 4,3 C 81 % 1007,1 hPa 0,8 l/m 0,0 km/h N 1,4 C 4,3 C 0,4 km/h
08.12.2018 02:00 4,4 C 82 % 1007,0 hPa 1,3 l/m 0,1 km/h N 1,5 C 4,4 C 3,6 km/h
08.12.2018 03:00 4,4 C 82 % 1006,8 hPa 0,3 l/m 0,0 km/h N 1,6 C 4,4 C 0,4 km/h
08.12.2018 04:00 6,1 C 82 % 1007,4 hPa 0,3 l/m 5,7 km/h N 3,3 C 4,7 C 24,9 km/h
08.12.2018 05:00 9,1 C 77 % 1007,6 hPa 0,0 l/m 13,1 km/h N 5,3 C 5,0 C 37,4 km/h
08.12.2018 06:00 9,1 C 72 % 1009,0 hPa 0,0 l/m 15,6 km/h N 4,4 C 3,8 C 39,4 km/h
08.12.2018 07:00 8,4 C 73 % 1010,1 hPa 0,0 l/m 15,1 km/h N 3,8 C 3,1 C 35,4 km/h
08.12.2018 08:00 7,8 C 74 % 1011,0 hPa 0,0 l/m 14,3 km/h N 3,4 C 2,8 C 38,2 km/h
08.12.2018 09:00 7,4 C 72 % 1011,1 hPa 0,0 l/m 17,9 km/h N 2,7 C 0,8 C 44,7 km/h
08.12.2018 10:00 7,4 C 72 % 1011,6 hPa 0,0 l/m 18,0 km/h N 2,7 C 0,7 C 43,5 km/h
08.12.2018 11:00 7,5 C 70 % 1011,5 hPa 0,0 l/m 14,3 km/h N 2,3 C 2,4 C 34,6 km/h
08.12.2018 12:00 7,7 C 67 % 1011,4 hPa 0,0 l/m 11,2 km/h N 2,0 C 4,4 C 32,2 km/h
08.12.2018 13:00 8,3 C 63 % 1011,1 hPa 0,0 l/m 12,2 km/h N 1,7 C 4,7 C 31,8 km/h
08.12.2018 14:00 8,7 C 61 % 1011,2 hPa 0,0 l/m 10,7 km/h N 1,5 C 5,8 C 29,8 km/h
08.12.2018 15:00 8,6 C 60 % 1010,9 hPa 0,0 l/m 9,0 km/h N 1,1 C 6,7 C 22,9 km/h
08.12.2018 16:00 8,4 C 59 % 1010,5 hPa 0,0 l/m 7,1 km/h N 0,8 C 7,8 C 22,5 km/h
08.12.2018 17:00 8,6 C 57 % 1010,5 hPa 0,0 l/m 7,2 km/h N 0,6 C 8,1 C 22,9 km/h
08.12.2018 18:00 8,8 C 57 % 1010,6 hPa 0,0 l/m 4,7 km/h N 0,7 C 8,8 C 16,5 km/h
08.12.2018 19:00 8,8 C 61 % 1010,5 hPa 0,0 l/m 4,6 km/h N 1,7 C 8,8 C 18,5 km/h
08.12.2018 20:00 8,0 C 66 % 1010,5 hPa 0,0 l/m 3,0 km/h N 2,0 C 8,0 C 9,7 km/h
08.12.2018 21:00 8,1 C 66 % 1010,3 hPa 0,0 l/m 2,5 km/h N 2,1 C 8,1 C 11,3 km/h
08.12.2018 22:00 7,5 C 68 % 1009,5 hPa 0,0 l/m 0,8 km/h N 2,0 C 7,5 C 4,4 km/h
08.12.2018 23:00 6,8 C 72 % 1008,5 hPa 0,0 l/m 1,0 km/h N 2,0 C 6,8 C 7,2 km/h
09.12.2018 00:00 6,6 C 71 % 1007,7 hPa 0,0 l/m 0,0 km/h N 1,8 C 6,6 C 0,4 km/h
09.12.2018 01:00 5,1 C 75 % 1006,7 hPa 0,0 l/m 0,0 km/h N 1,0 C 5,1 C 0,4 km/h
09.12.2018 02:00 4,1 C 77 % 1005,5 hPa 0,0 l/m 0,0 km/h N 0,4 C 4,1 C 0,0 km/h
09.12.2018 03:00 2,7 C 79 % 1004,4 hPa 0,0 l/m 0,0 km/h N -0,6 C 2,7 C 0,4 km/h
09.12.2018 04:00 3,0 C 81 % 1003,6 hPa 0,0 l/m 0,0 km/h N 0,0 C 3,0 C 0,0 km/h
09.12.2018 05:00 4,8 C 78 % 1001,9 hPa 0,0 l/m 0,4 km/h N 1,3 C 4,8 C 2,8 km/h
09.12.2018 06:00 6,2 C 71 % 1001,0 hPa 0,0 l/m 2,2 km/h N 1,2 C 6,2 C 10,9 km/h
09.12.2018 07:00 6,7 C 66 % 1000,5 hPa 0,0 l/m 1,0 km/h N 0,8 C 6,7 C 5,2 km/h
09.12.2018 08:00 7,7 C 69 % 1000,7 hPa 0,0 l/m 2,3 km/h N 2,2 C 7,7 C 12,9 km/h
09.12.2018 09:00 9,6 C 69 % 1000,6 hPa 0,0 l/m 9,4 km/h N 4,2 C 7,5 C 25,8 km/h
09.12.2018 10:00 9,8 C 67 % 1000,8 hPa 0,0 l/m 9,9 km/h N 4,0 C 7,6 C 27,8 km/h
09.12.2018 11:00 10,1 C 65 % 1000,2 hPa 0,0 l/m 13,2 km/h N 3,9 C 6,2 C 37,4 km/h
09.12.2018 12:00 10,4 C 64 % 1000,1 hPa 0,0 l/m 14,7 km/h N 3,8 C 5,7 C 45,1 km/h
09.12.2018 13:00 9,5 C 68 % 1000,9 hPa 0,0 l/m 12,6 km/h N 3,8 C 5,6 C 41,8 km/h
09.12.2018 14:00 9,1 C 68 % 1001,1 hPa 0,0 l/m 15,9 km/h N 3,5 C 3,7 C 41,1 km/h
09.12.2018 15:00 8,9 C 69 % 1001,0 hPa 0,0 l/m 16,1 km/h N 3,6 C 3,5 C 37,8 km/h
09.12.2018 16:00 8,5 C 71 % 1000,5 hPa 0,0 l/m 16,9 km/h N 3,6 C 2,6 C 43,5 km/h
09.12.2018 17:00 8,9 C 69 % 1000,3 hPa 0,0 l/m 19,3 km/h N 3,4 C 2,1 C 55,5 km/h
09.12.2018 18:00 8,4 C 70 % 1001,5 hPa 0,0 l/m 10,4 km/h N 3,1 C 5,6 C 43,4 km/h
09.12.2018 19:00 8,4 C 70 % 1002,2 hPa 0,0 l/m 7,2 km/h N 3,2 C 7,8 C 30,6 km/h
09.12.2018 20:00 8,6 C 70 % 1002,0 hPa 0,0 l/m 11,3 km/h N 3,5 C 5,3 C 39,4 km/h
09.12.2018 21:00 8,6 C 70 % 1003,0 hPa 0,0 l/m 10,5 km/h N 3,4 C 5,8 C 37,8 km/h
09.12.2018 22:00 8,6 C 71 % 1003,4 hPa 0,0 l/m 11,3 km/h N 3,5 C 5,3 C 34,6 km/h
09.12.2018 23:00 8,4 C 72 % 1004,3 hPa 0,0 l/m 13,7 km/h N 3,6 C 3,9 C 42,7 km/h
Min-Datum _ 06.12.18 08.12.18 09.12.18 - 03.12.18 - 06.12.18 06.12.18 03.12.18
_ Min-Zeit 01:15 17:45 11:45 - 00:15 - 01:00 01:00 01:30
Minimum _ -4,4 C 56 % 999,9 hPa - 0,0 km/h - -7,0 C -4,4 C 0,0 km/h
Max-Datum _ 04.12.18 03.12.18 05.12.18 03.12.18 08.12.18 - 04.12.18 04.12.18 09.12.18
_ Max-Zeit 13:00 04:45 10:30 06:00 10:00 - 04:45 12:00 17:00
Maximum _ 12,8 C 83 % 1030,4 hPa 1,8 l/m 20,3 km/h
N
- 7,8 C 12,4 C 56,3 km/h
N
Durchschnitt _ 4,9 C 77 % 1014,9 hPa #25,2 l/m 3,4 km/h N 1,1 C 4,1 C 11,1 km/h